Alder Creek, New York
Current Conditions -  °F | °C
As of 12:53 AM on Saturday 01 Nov 2014 (Local Time) from KRME Reporting Station
Broken Clouds Broken Clouds  
Wind Chill: 40°   Ceiling: 6000
Heat Index: 40°   Visibility: 10mi
Dew Point: 35°   Wind: 3mph
Humidity: 83%   Direction: 350°N
Pressure: 29.97"   Gusts: NA
Location:  43.42°N, 75.23°W
Report Text: KRME 010453Z AUTO 35003KT 10SM BKN060 BKN120 04/02 A2997 RMK AO2 SLP151 T00440017 400941011
Loading
Personal Weather Stations






























Interactive Weather Map
Tropical Storm Tracking
New forecast layout! Learn more

10-Day Weather Forecast

Advertisements
Track Severe Weather on mobile